Terminal Aerodrome Forecast
Issued by NWS

Home | Current Version | Previous Version | Text Only | Print | Product List | Glossary On
Versions: 1 2 3 4 5 6 7 8 9 10 11 12
000
FTUS43 KILX 022320
TAFCMI
TAF
KCMI 022320Z 0300/0324 22010KT P6SM SCT090
     FM030500 22009KT P6SM VCTS SCT050CB BKN090
     FM031200 32008KT P6SM SCT090=

USA.gov is the U.S. government's official web portal to all federal, state and local government web resources and services.